Flight Track Log - Related Links

Times and Time Zones

All times are in EST time to prevent confusion due to time zone crossing. See the SWA3725 flight status page for this flight to view local times or setup timezone preferences in your user account.

Time Position Orientation Groundspeed Altitude Reporting Facility
EST Latitude Longitude Course Direction KTS MPH feet Rate Location/Type
Tue 10:29:45 AM 32.1061 -110.9267 138° Southeast 149 171 3,200  Level Albuquerque Center
Tue 10:30:45 AM 32.0736 -110.8925 138° Southeast 167 192 5,000 1,707 Climbing Albuquerque Center
Tue 10:31:48 AM 32.0364 -110.8333 127° Southeast 256 295 6,700 1,791 Climbing Albuquerque Center
Tue 10:31:52 AM 32.0350 -110.8275 106° East 234 269 7,000 2,516 Climbing Albuquerque Center
Tue 10:32:50 AM 32.0231 -110.7486 100° East 261 300 9,300 2,656 Climbing Albuquerque Center
Tue 10:32:53 AM 32.0181 -110.7417 130° Southeast 270 311 9,700 2,129 Climbing Albuquerque Center
Tue 10:33:52 AM 32.0003 -110.6542 103° East 292 336 11,500 2,164 Climbing Albuquerque Center
Tue 10:33:54 AM 31.9983 -110.6414 100° East 330 380 11,900 2,903 Climbing Albuquerque Center
Tue 10:34:54 AM 31.9925 -110.5417 94° East 347 399 14,500 2,926 Climbing Albuquerque Center
Tue 10:35:55 AM 32.0031 -110.3978 85° East 365 420 17,800 2,732 Climbing Albuquerque Center
Tue 10:36:57 AM 32.0097 -110.2694 86° East 385 443 20,100 2,323 Climbing Albuquerque Center
Tue 10:37:59 AM 32.0158 -110.1344 87° East 405 466 22,600 2,323 Climbing Albuquerque Center
Tue 10:39:01 AM 32.0228 -109.9944 87° East 424 488 24,900 1,984 Climbing Albuquerque Center
Tue 10:40:03 AM 32.0267 -109.8506 88° East 437 503 26,700 1,694 Climbing Albuquerque Center
Tue 10:41:05 AM 32.0522 -109.7092 78° East 445 512 28,400 1,790 Climbing Albuquerque Center
Tue 10:42:07 AM 32.1275 -109.5592 59° Northeast 444 511 30,400 2,032 Climbing Albuquerque Center
Tue 10:43:09 AM 32.1869 -109.4322 61° Northeast 444 511 32,600 1,258 Climbing Albuquerque Center
Tue 10:44:11 AM 32.2456 -109.3078 61° Northeast 438 504 33,000 194 Climbing Albuquerque Center
Tue 10:45:13 AM 32.3219 -109.1992 50° Northeast 433 498 33,000 581 Level Albuquerque Center
Tue 10:46:15 AM 32.4078 -109.1025 44° Northeast 430 495 34,200 1,016 Climbing Albuquerque Center
Tue 10:47:17 AM 32.4922 -109.0061 44° Northeast 426 490 35,100 1,122 Climbing Albuquerque Center
Tue 10:48:18 AM 32.5947 -108.8886 44° Northeast 428 493 36,500 927 Climbing Albuquerque Center
Tue 10:49:20 AM 32.6800 -108.7897 44° Northeast 431 496 37,000 242 Climbing Albuquerque Center
Tue 10:50:22 AM 32.7661 -108.6906 44° Northeast 434 499 37,000  Level Albuquerque Center
Tue 10:51:24 AM 32.8525 -108.5903 44° Northeast 437 503 37,000  Level Albuquerque Center
Tue 10:52:26 AM 32.9558 -108.4692 45° Northeast 439 505 37,000  Level Albuquerque Center
Tue 10:53:28 AM 33.0422 -108.3683 44° Northeast 438 504 37,000  Level Albuquerque Center
Tue 10:54:30 AM 33.1278 -108.2686 44° Northeast 436 502 37,000  Level Albuquerque Center
Tue 10:55:32 AM 33.2125 -108.1694 44° Northeast 431 496 37,000  Level Albuquerque Center
Tue 10:56:34 AM 33.2969 -108.0703 44° Northeast 429 494 37,000  Level Albuquerque Center
Tue 10:57:36 AM 33.3819 -107.9706 44° Northeast 429 494 37,000  Level Albuquerque Center
Tue 10:58:38 AM 33.4819 -107.8494 45° Northeast 427 491 37,000  Level Albuquerque Center
Tue 10:59:40 AM 33.5561 -107.7633 44° Northeast 428 493 37,000  Level Albuquerque Center
Tue 11:00:42 AM 33.6556 -107.6447 45° Northeast 423 487 37,000  Level Albuquerque Center
Tue 11:01:44 AM 33.7386 -107.5442 45° Northeast 424 488 37,000  Level Albuquerque Center
Tue 11:02:46 AM 33.8197 -107.4467 45° Northeast 420 483 37,000  Level Albuquerque Center
Tue 11:03:48 AM 33.9017 -107.3500 44° Northeast 417 480 37,000  Level Albuquerque Center
Tue 11:04:51 AM 33.9831 -107.2517 45° Northeast 415 478 37,000  Level Albuquerque Center
Tue 11:05:52 AM 34.0639 -107.1531 45° Northeast 414 476 37,000  Level Albuquerque Center
Tue 11:06:54 AM 34.1617 -107.0350 45° Northeast 415 478 37,000  Level Albuquerque Center
Tue 11:07:56 AM 34.2419 -106.9369 45° Northeast 415 478 37,000  Level Albuquerque Center
Tue 11:08:58 AM 34.3311 -106.8303 45° Northeast 419 482 37,000  Level Albuquerque Center
Tue 11:10:00 AM 34.4186 -106.7222 46° Northeast 419 482 37,000  Level Albuquerque Center
Tue 11:11:02 AM 34.5006 -106.6197 46° Northeast 423 487 37,000  Level Albuquerque Center
Tue 11:12:04 AM 34.5817 -106.5183 46° Northeast 422 486 37,000  Level Albuquerque Center
Tue 11:13:06 AM 34.6700 -106.4069 46° Northeast 424 488 37,000 48 Level Albuquerque Center
Tue 11:14:09 AM 34.7506 -106.3047 46° Northeast 420 483 37,100 480 Climbing Albuquerque Center
Tue 11:15:11 AM 34.8306 -106.2022 46° Northeast 419 482 38,000 726 Climbing Albuquerque Center
Tue 11:16:13 AM 34.9119 -106.0961 47° Northeast 426 490 38,600 484 Climbing Albuquerque Center
Tue 11:17:15 AM 34.9964 -105.9900 46° Northeast 433 498 39,000 194 Climbing Albuquerque Center
Tue 11:18:17 AM 35.0800 -105.8828 46° Northeast 437 503 39,000  Level Albuquerque Center
Tue 11:19:19 AM 35.1792 -105.7578 46° Northeast 432 497 39,000  Level Albuquerque Center
Tue 11:20:21 AM 35.2608 -105.6508 47° Northeast 433 498 39,000  Level Albuquerque Center
Tue 11:21:23 AM 35.3447 -105.5419 47° Northeast 432 497 39,000  Level Albuquerque Center
Tue 11:22:25 AM 35.4281 -105.4344 46° Northeast 430 495 39,000  Level Albuquerque Center
Tue 11:23:27 AM 35.5108 -105.3264 47° Northeast 431 496 39,000  Level Albuquerque Center
Tue 11:24:29 AM 35.5933 -105.2197 46° Northeast 428 493 39,000  Level Albuquerque Center
Tue 11:25:31 AM 35.6833 -105.0900 49° Northeast 424 488 39,000  Level Albuquerque Center
Tue 11:26:33 AM 35.7492 -104.9653 57° Northeast 427 491 39,000  Level Albuquerque Center
Tue 11:27:36 AM 35.8169 -104.8428 56° Northeast 428 493 39,000  Level Albuquerque Center
Tue 11:28:37 AM 35.8833 -104.7189 56° Northeast 428 493 39,000  Level Albuquerque Center
Tue 11:29:40 AM 35.9503 -104.5958 56° Northeast 426 490 39,000  Level Albuquerque Center
Tue 11:30:42 AM 36.0164 -104.4725 56° Northeast 426 490 39,000  Level Albuquerque Center
Tue 11:31:44 AM 36.0817 -104.3497 57° Northeast 424 488 39,000  Level Albuquerque Center
Tue 11:32:46 AM 36.1481 -104.2281 56° Northeast 422 486 39,000  Level Albuquerque Center
Tue 11:33:48 AM 36.2253 -104.0833 56° Northeast 426 490 39,000  Level Albuquerque Center
Tue 11:34:50 AM 36.2908 -103.9603 57° Northeast 425 489 39,000  Level Albuquerque Center
Tue 11:35:52 AM 36.3561 -103.8383 56° Northeast 422 486 39,000  Level Albuquerque Center
Tue 11:36:54 AM 36.4214 -103.7144 57° Northeast 423 487 39,000  Level Albuquerque Center
Tue 11:37:56 AM 36.4856 -103.5914 57° Northeast 422 486 39,000  Level Albuquerque Center
Tue 11:38:58 AM 36.5497 -103.4656 58° Northeast 424 488 39,000  Level Albuquerque Center
Tue 11:40:00 AM 36.6144 -103.3428 57° Northeast 422 486 39,000  Level Albuquerque Center
Tue 11:41:02 AM 36.6814 -103.2131 57° Northeast 424 488 39,000  Level Albuquerque Center
Tue 11:42:04 AM 36.7525 -103.0747 57° Northeast 425 489 39,000  Level Albuquerque Center
Tue 11:43:06 AM 36.8139 -102.9561 57° Northeast 426 490 39,000  Level Albuquerque Center
Tue 11:44:08 AM 36.8844 -102.8175 57° Northeast 425 489 39,000  Level Albuquerque Center
Tue 11:45:10 AM 36.9486 -102.6944 57° Northeast 437 503 39,000  Level Albuquerque Center
Tue 11:46:12 AM 37.0200 -102.5536 58° Northeast 432 497 39,000  Level Albuquerque Center
Tue 11:47:14 AM 37.0861 -102.4219 58° Northeast 427 491 39,000  Level Albuquerque Center
Tue 11:48:16 AM 37.1522 -102.2925 57° Northeast 431 496 39,000  Level Albuquerque Center
Tue 11:49:18 AM 37.2183 -102.1592 58° Northeast 427 491 39,000  Level Albuquerque Center
Tue 11:50:20 AM 37.2786 -102.0378 58° Northeast 427 491 39,000  Level Albuquerque Center
Tue 11:51:22 AM 37.3394 -101.9164 58° Northeast 429 494 39,000  Level Albuquerque Center
Tue 11:52:35 AM 37.4186 -101.7528 59° Northeast 427 491 39,000  Level Kansas City Center
Tue 11:53:37 AM 37.4889 -101.6092 58° Northeast 430 495 39,000  Level Kansas City Center
Tue 11:54:40 AM 37.5503 -101.4850 58° Northeast 433 498 39,000  Level Kansas City Center
Tue 11:55:42 AM 37.6106 -101.3603 59° Northeast 434 499 39,000  Level Kansas City Center
Tue 11:56:44 AM 37.6819 -101.2139 58° Northeast 435 501 39,000  Level Kansas City Center
Tue 11:57:46 AM 37.7481 -101.0781 58° Northeast 435 501 39,000  Level Kansas City Center
Tue 11:58:48 AM 37.8133 -100.9406 59° Northeast 433 498 39,000  Level Kansas City Center
Tue 11:59:50 AM 37.8753 -100.8150 58° Northeast 433 498 39,000  Level Kansas City Center
Tue 12:00:52 PM 37.9342 -100.6847 60° Northeast 440 506 39,000  Level Kansas City Center
Tue 12:01:54 PM 37.9875 -100.5233 67° East 443 510 39,000  Level Kansas City Center
Tue 12:02:56 PM 38.0336 -100.3842 67° East 445 512 39,000  Level Kansas City Center
Tue 12:03:58 PM 38.0875 -100.2219 67° East 445 512 39,000  Level Kansas City Center
Tue 12:05:00 PM 38.1339 -100.0836 67° East 445 512 39,000  Level Kansas City Center
Tue 12:06:02 PM 38.1869 -99.9261 67° East 437 503 39,000  Level Kansas City Center
Tue 12:07:04 PM 38.2297 -99.7919 68° East 430 495 39,000  Level Kansas City Center
Tue 12:08:06 PM 38.2817 -99.6375 67° East 426 490 39,000  Level Kansas City Center
Tue 12:09:08 PM 38.3278 -99.4936 68° East 428 493 39,000  Level Kansas City Center
Tue 12:10:10 PM 38.3758 -99.3519 67° East 433 498 39,000  Level Kansas City Center
Tue 12:11:12 PM 38.4219 -99.2100 67° East 434 499 39,000  Level Kansas City Center
Tue 12:12:15 PM 38.4681 -99.0678 67° East 433 498 39,000  Level Kansas City Center
Tue 12:13:16 PM 38.5139 -98.9256 68° East 432 497 39,000  Level Kansas City Center
Tue 12:14:18 PM 38.5619 -98.7800 67° East 440 506 39,000  Level Kansas City Center
Tue 12:15:20 PM 38.6086 -98.6358 67° East 438 504 39,000  Level Kansas City Center
Tue 12:16:22 PM 38.6636 -98.4631 68° East 437 503 39,000  Level Kansas City Center
Tue 12:17:24 PM 38.7092 -98.3164 68° East 440 506 39,000  Level Kansas City Center
Tue 12:18:26 PM 38.7561 -98.1694 68° East 444 511 39,000  Level Kansas City Center
Tue 12:19:28 PM 38.8017 -98.0222 68° East 443 510 39,000  Level Kansas City Center
Tue 12:20:31 PM 38.8475 -97.8747 68° East 443 510 39,000  Level Kansas City Center
Tue 12:21:33 PM 38.8997 -97.7031 69° East 444 511 39,000  Level Kansas City Center
Tue 12:22:35 PM 38.9428 -97.5569 69° East 453 521 39,000  Level Kansas City Center
Tue 12:23:37 PM 38.9833 -97.4047 71° East 468 539 39,000  Level Kansas City Center
Tue 12:24:39 PM 39.0300 -97.2258 71° East 472 543 39,000  Level Kansas City Center
Tue 12:25:41 PM 39.0708 -97.0736 71° East 470 541 39,000  Level Kansas City Center
Tue 12:26:43 PM 39.1178 -96.8922 72° East 476 548 39,000  Level Kansas City Center
Tue 12:27:45 PM 39.1569 -96.7389 72° East 473 544 39,000  Level Kansas City Center
Tue 12:28:47 PM 39.2033 -96.5600 71° East 470 541 39,000  Level Kansas City Center
Tue 12:29:49 PM 39.2411 -96.4053 72° East 472 543 39,000  Level Kansas City Center
Tue 12:30:51 PM 39.2883 -96.2236 71° East 478 550 39,000  Level Kansas City Center
Tue 12:31:53 PM 39.3261 -96.0664 73° East 477 549 39,000  Level Kansas City Center
Tue 12:32:55 PM 39.3731 -95.8803 72° East 485 558 39,000  Level Kansas City Center
Tue 12:33:57 PM 39.4128 -95.7183 72° East 490 564 39,000  Level Kansas City Center
Tue 12:34:59 PM 39.4531 -95.5553 72° East 494 568 39,000  Level Kansas City Center
Tue 12:36:01 PM 39.5006 -95.3583 73° East 498 573 39,000  Level Kansas City Center
Tue 12:38:05 PM 39.5861 -95.0050 72° East 497 572 39,000  Level Kansas City Center
Tue 12:39:07 PM 39.6258 -94.8392 73° East 500 575 39,000  Level Kansas City Center
Tue 12:40:09 PM 39.6656 -94.6756 72° East 497 572 39,000  Level Kansas City Center
Tue 12:41:11 PM 39.7097 -94.4844 73° East 493 567 39,000  Level Kansas City Center
Tue 12:42:14 PM 39.7478 -94.3233 73° East 487 560 39,000  Level Kansas City Center
Tue 12:43:16 PM 39.7914 -94.1350 73° East 486 559 39,000  Level Kansas City Center
Tue 12:44:18 PM 39.8278 -93.9703 74° East 494 568 39,000  Level Kansas City Center
Tue 12:45:20 PM 39.8661 -93.8022 73° East 490 564 39,000  Level Kansas City Center
Tue 12:46:22 PM 39.9111 -93.6000 74° East 489 563 39,000  Level Kansas City Center
Tue 12:47:24 PM 39.9494 -93.4306 74° East 491 565 39,000  Level Kansas City Center
Tue 12:48:26 PM 39.9894 -93.2617 73° East 494 568 39,000  Level Kansas City Center
Tue 12:49:28 PM 40.0264 -93.0894 74° East 495 570 39,000  Level Kansas City Center
Tue 12:50:30 PM 40.0667 -92.9042 74° East 498 573 39,000  Level Kansas City Center
Tue 12:51:32 PM 40.1083 -92.7089 74° East 500 575 39,000  Level Kansas City Center
Tue 12:52:34 PM 40.1436 -92.5400 75° East 503 579 39,000  Level Kansas City Center
Tue 12:53:36 PM 40.1828 -92.3731 73° East 504 580 39,000 -339 Level Kansas City Center
Tue 12:54:38 PM 40.2181 -92.1922 76° East 509 586 38,300 -871 Descending Kansas City Center
Tue 12:55:40 PM 40.2608 -91.9819 75° East 506 582 37,200 -1,016 Descending Kansas City Center
Tue 12:56:42 PM 40.2956 -91.8056 75° East 505 581 36,200 -968 Descending Kansas City Center
Tue 12:57:44 PM 40.3308 -91.6292 75° East 504 580 35,200 -919 Descending Kansas City Center
Tue 12:58:46 PM 40.3661 -91.4528 75° East 505 581 34,300 -1,452 Descending Kansas City Center
Tue 12:59:48 PM 40.4006 -91.2786 75° East 502 578 32,200 -1,584 Descending Kansas City Center
Tue 01:00:51 PM 40.4417 -91.0661 76° East 502 578 31,000 -1,104 Descending Kansas City Center
Tue 01:01:53 PM 40.4761 -90.8889 76° East 501 577 29,900 -1,065 Descending Kansas City Center
Tue 01:02:55 PM 40.5100 -90.7136 76° East 499 574 28,800 -1,016 Descending Kansas City Center
Tue 01:03:57 PM 40.5422 -90.5411 76° East 490 564 27,800 -968 Descending Kansas City Center
Tue 01:04:59 PM 40.5742 -90.3703 76° East 484 557 26,800 -1,258 Descending Kansas City Center
Tue 01:06:01 PM 40.6122 -90.1706 76° East 481 554 25,200 -1,645 Descending Kansas City Center
Tue 01:07:03 PM 40.6417 -90.0039 77° East 474 545 23,400 -1,742 Descending Kansas City Center
Tue 01:08:05 PM 40.6714 -89.8431 76° East 465 535 21,600 -1,597 Descending Kansas City Center
Tue 01:09:07 PM 40.7169 -89.7031 67° East 426 490 20,100 -1,306 Descending Kansas City Center
Tue 01:10:09 PM 40.7811 -89.5606 59° Northeast 398 458 18,900 -1,015 Descending Kansas City Center
Tue 01:11:23 PM 40.8442 -89.4150 60° Northeast 385 443 17,800 -1,147 Descending Chicago Center
Tue 01:12:25 PM 40.8958 -89.2933 61° Northeast 382 440 16,300 -1,452 Descending Chicago Center
Tue 01:13:27 PM 40.9450 -89.1781 61° Northeast 367 422 14,800 -1,403 Descending Chicago Center
Tue 01:14:29 PM 40.9925 -89.0656 61° Northeast 355 409 13,400 -1,452 Descending Chicago Center
Tue 01:15:31 PM 41.0419 -88.9475 61° Northeast 340 391 11,800 -1,452 Descending Chicago Center
Tue 01:16:33 PM 41.0944 -88.8561 53° Northeast 317 365 10,400 -1,210 Descending Chicago Center
Tue 01:17:35 PM 41.1572 -88.7833 41° Northeast 301 346 9,300 -1,065 Descending Chicago Center
Tue 01:18:37 PM 41.2292 -88.6989 41° Northeast 291 335 8,200 -1,065 Descending Chicago Center
Tue 01:19:39 PM 41.2864 -88.6294 42° Northeast 282 325 7,100 -1,065 Descending Chicago Center
Tue 01:20:41 PM 41.3242 -88.5439 60° Northeast 282 325 6,000 -532 Descending Chicago Center
Tue 01:21:43 PM 41.3608 -88.4550 61° Northeast 277 319 6,000  Level Chicago Center
Tue 01:22:45 PM 41.3989 -88.3681 60° Northeast 274 315 6,000  Level Chicago Center
Tue 01:23:47 PM 41.4356 -88.2783 61° Northeast 274 315 6,000  Level Chicago Center
Tue 01:24:49 PM 41.4625 -88.1831 69° East 274 315 6,000 -293 Level Chicago Center
Tue 01:25:50 PM 41.4914 -88.0856 68° East 277 319 5,400 -488 Descending Chicago Center
Tue 01:26:52 PM 41.5253 -87.9692 69° East 276 318 5,000 -677 Descending Chicago Center
Tue 01:27:54 PM 41.5525 -87.8747 69° East 274 315 4,000 -968 Descending Chicago Center
Tue 01:28:56 PM 41.5942 -87.8014 53° Northeast 263 303 3,000 -726 Descending Chicago Center
Tue 01:29:58 PM 41.6433 -87.7464 40° Northeast 244 281 2,500 -242 Descending Chicago Center
Tue 01:31:00 PM 41.6856 -87.7000 39° Northeast 220 253 2,500 -97 Level Chicago Center
Tue 01:32:02 PM 41.7194 -87.6656 37° Northeast 181 208 2,300 -435 Descending Chicago Center
Tue 01:33:04 PM 41.7519 -87.7058 317° Northwest 147 169 1,600 -629 Descending Chicago Center
Tue 01:34:06 PM 41.7703 -87.7314 314° West 133 153 1,000 -581 Descending Chicago Center

Login

Don't have an account? Register now (free) for customized features, flight alerts, and more!